City's sites:

title views votes rating creation
?never been here 502 12 (3.08)  2010-02-07
?pastel negro 726 14 (2.50)  2010-02-07
?dizzy 401 8 (3.38)  2010-02-07
?two pictures from my desktop 960 16 (3.69)  2010-02-09
?broken clock realizes he is the last object left in the ... 583 10 (3.20)  2010-02-09
?heroes of old 734 19 (3.74)  2010-02-09
?mr. price 550 8 (3.25)  2010-02-09
?Music I Like - Part 1 775 10 (3.60)  2010-02-10
?Music I Like - Part 2 503 13 (3.54)  2010-02-10
?Music I Like - Part 3 663 13 (3.69)  2010-02-10
?Music I Like - Part 4 539 5 (3.20)  2010-02-10
?intense 693 9 (3.78)  2010-02-10
?oh SNAP 937 9 (3.22)  2010-02-10
?Music I Like - Part 5 691 9 (3.56)  2010-02-10
?SignlanguageTMND 516 14 (3.86)  2010-02-10
?lol internet (refresh) 801 5 (3.60)  2010-02-12
?Dumbeldore kills snape! 3,563 67 (4.03)  2010-02-12
?prairiedogeric10 tribute site 946 23 (3.96)  2010-02-13
?Legolewdite fan club 1,438 38 (3.87)  2010-02-13
?Connery retires 557 12 (3.75)  2010-02-13
?TOURNEY4: lol internet 677 6 (2.67)  2010-02-15
?Speed Deemon 1,203 23 (3.74)  2010-02-23
?Tribute: ASSCOCKredux 1,841 64 (3.91)  2010-02-23
?some light jazz with Robert De Niro 988 12 (3.50)  2010-02-23
?In What Language 1,603 33 (3.76)  2010-02-24
?go go go go go go go go go go go go go go go go ... 2,219 23 (3.74)  2010-02-24
?FEARCONDOM'S FAMILY Q U I L T 701 11 (3.55)  2010-02-24
?TEST 950 19 (3.84)  2010-02-26
?....someday, oh dream maker DUNANANANAN... 5,305 148 (3.96)  2010-02-28
?DOUGH FUNNIE HOMO DICKS 846 12 (3.58)  2010-03-01
?Using a concrete bricK 690 17 (3.82)  2010-03-01
?I had sex with a Kayan Tribe woman, little help plea... 1,202 11 (3.36)  2010-03-03
?Adventure 4 1,298 18 (3.61)  2010-03-03
?the standoff 565 9 (3.67)  2010-03-03
?alley children 667 11 (3.91)  2010-03-05
?Steven Seagal isn't impressed 10,103 181 (4.17)  2010-03-05
?Daunting Steps 278 7 (3.00)  2010-03-05
?Cruel and Unusual 6,448 163 (4.24)  2010-03-09
?DancehallTMND 554 10 (3.80)  2010-03-12
?FUCK OUT MY FACE 558 5 (2.60)  2010-03-18
?16, no dither 923 18 (3.94)  2010-03-20
?say hi to my girlfriend 1,201 16 (3.81)  2010-03-21
?TT 811 16 (3.88)  2010-03-23
?jimmm thinks about his next five 826 20 (3.80)  2010-03-24
?THE TELEKINETIC MAN 425 18 (3.50)  2010-03-25
?. 201 7 (2.71)  2010-03-26
?1! 471 17 (3.35)  2010-03-26
?Fake crocodile takes it to the limit one more time 685 9 (3.67)  2010-03-27
?croctheme 483 4 (3.25)  2010-03-27
?crocodile site 606 6 (3.50)  2010-03-27
?CROC MAKES A 187 LOOK EASY 265 6 (3.33)  2010-03-27
?New Croc SIte 253 5 (3.40)  2010-03-27
?L 515 19 (3.63)  2010-03-27
?crocodile sIte 450 10 (3.50)  2010-03-30
?Pleasant® 518 8 (3.38)  2010-03-30
?A Lovely Ride 374 13 (3.85)  2010-03-30
?It's glorious today 364 13 (3.69)  2010-04-01
?Na - Zu 523 10 (3.70)  2010-04-01
?WHO'NOWOWOWOW 493 5 (2.60)  2010-04-03
?part of your world 287 5 (3.00)  2010-04-04
?fff 241 4 (3.50)  2010-04-04
?FIve-star webiste 1,210 16 (1.94)  2010-04-04
?Captain Haddock 1,921 28 (3.86)  2010-04-04
?, 368 9 (3.33)  2010-04-05
?indnian 574 7 (2.71)  2010-04-05
?Ricky Manning tribute sIte will be Underway soon ! 370 3 (3.67)  2010-04-06
?Epic Domain Grab 340 6 (2.17)  2010-04-06
?retirement site 227 6 (2.83)  2010-04-06
?Paul newman doesn't drive a VAN 299 4 (3.00)  2010-04-06
?Vince McMan 528 7 (2.86)  2010-04-06
?LOL 421 5 (3.00)  2010-04-06
?wut 420 4 (2.75)  2010-04-06
?www.coachcarter.ytmnd.com 444 8 (1.88)  2010-04-06
?untitled 402 7 (2.14)  2010-04-09
?ExpirimennalTYTMND 500 8 (3.38)  2010-04-09
?jioejejejoijiojiojioejiejoijeoj 541 13 (3.92)  2010-04-09
?Jake Steele catches a fly ball 471 4 (3.50)  2010-04-10
?Jake Steele forgets the milk 455 3 (3.00)  2010-04-10
?Jake Steele just found his watch 427 4 (3.25)  2010-04-10
?Jake Steele grows up a bit 592 7 (2.86)  2010-04-10
?KRA2008 496 5 (2.60)  2010-04-10
?Fuck the world 931 26 (3.88)  2010-04-16
?a sexual guy 647 10 (2.30)  2010-05-12
?well 493 3 (4.67)  2010-09-03
?gay site you can watch while thinking about stuff 1,872 14 (4.07)  2010-09-13
?site dedicated to great warchief 1,462 12 (3.58)  2010-09-16
?38388 1,002 8 (3.88)  2010-09-16
?watching the world buzz by 672 4 (3.50)  2010-09-16
?what now 1,619 16 (3.88)  2010-09-16